Mc Call Municipal Airport Mc Call US
ICAO: KMYL
IATA: MYL
Category: Medium
Scheduled Services: No

Elevation: 5024 ft
TransAlt. 18000 ft.

Airport Communications:
ASOS:119.925
SALT LAKE CITY CNTR:128.05
BOISE RDO:122.35
CTAF/UNICOM:122.8

KMYL Zoom In..

Runways:

(A) RW 16 length 6108 ft width 75 ft
---- / hdg 162

(B) RW 34 length 6108 ft width 75 ft
---- / hdg 342

Location; KMYL
Day. 14 / Time. 13.51 Zulu
* Altimeter: 30.10
* Temperature: 09° c. 48.2°f.
* Wind from: 000° Speed 00 kn.
Dewpoint: 03° c.
Visibility: 10 Statute Miles.
Clouds: Clear (automated report).

KMYL 141351Z AUTO 00000KT 10SM CLR 09/03 A3010 RMK AO2 SLP154 T00890033 $


Wind - Calm.

 
 
jpsmedia.com for Web Design worldairports.se 2018   terms of use